createdAt,value
2022-08-26T00:01:31.673Z,19.3
2022-08-26T00:04:19.435Z,23.2
2022-08-26T00:07:08.119Z,16.1
2022-08-26T00:09:56.619Z,26.4
2022-08-26T00:12:45.476Z,27.4
2022-08-26T00:15:33.189Z,22.4
2022-08-26T00:18:22.253Z,24.4
2022-08-26T00:21:10.176Z,23.9
2022-08-26T00:23:57.907Z,19.3
2022-08-26T00:26:45.402Z,19
2022-08-26T00:29:37.388Z,29.6
2022-08-26T00:32:25.418Z,24.7
2022-08-26T00:35:14.310Z,20.4
2022-08-26T00:38:02.199Z,21.3
2022-08-26T00:40:50.746Z,24.4
2022-08-26T00:43:47.686Z,23.8
2022-08-26T00:46:36.642Z,16.7
2022-08-26T00:49:30.079Z,20.7
2022-08-26T00:52:24.370Z,24
2022-08-26T00:55:19.724Z,18.9
2022-08-26T00:58:13.663Z,27.7
2022-08-26T01:01:01.538Z,26
2022-08-26T01:03:50.201Z,14.7
2022-08-26T01:06:38.623Z,18.8
2022-08-26T01:09:27.516Z,22.1
2022-08-26T01:12:16.614Z,24
2022-08-26T01:15:13.136Z,24.2
2022-08-26T01:18:07.005Z,18.9
2022-08-26T01:20:57.521Z,27.9
2022-08-26T01:23:50.900Z,16
2022-08-26T01:26:40.118Z,19
2022-08-26T01:29:29.994Z,21
2022-08-26T01:32:20.182Z,18.6
2022-08-26T01:35:09.472Z,15.2
2022-08-26T01:37:57.347Z,16.4
2022-08-26T01:40:46.883Z,18.6
2022-08-26T01:43:35.730Z,22.2
2022-08-26T01:46:25.558Z,20.2
2022-08-26T01:49:16.499Z,21
2022-08-26T01:52:07.877Z,17.7
2022-08-26T01:55:03.038Z,23.3
2022-08-26T01:57:52.212Z,23.7
2022-08-26T02:00:46.016Z,18.7
2022-08-26T02:03:34.171Z,24.2
2022-08-26T02:06:36.020Z,21.5
2022-08-26T02:09:24.324Z,21.7
2022-08-26T02:12:13.419Z,20
2022-08-26T02:15:05.729Z,17.9
2022-08-26T02:17:57.546Z,17.5
2022-08-26T02:20:47.615Z,16.8
2022-08-26T02:23:41.785Z,19.1
2022-08-26T02:26:29.471Z,18.3
2022-08-26T02:29:17.080Z,16.2
2022-08-26T02:32:08.997Z,15.7
2022-08-26T02:34:56.827Z,17.2
2022-08-26T02:37:44.508Z,17.9
2022-08-26T02:40:33.192Z,18.2
2022-08-26T02:43:31.697Z,18.1
2022-08-26T02:46:29.761Z,18.3
2022-08-26T02:49:17.941Z,22.4
2022-08-26T02:52:06.264Z,20.1
2022-08-26T02:54:54.164Z,20.2
2022-08-26T02:57:42.972Z,21.1
2022-08-26T03:00:31.481Z,19.8
2022-08-26T03:03:22.552Z,19.8
2022-08-26T03:06:12.415Z,19.4
2022-08-26T03:09:00.023Z,18.8
2022-08-26T03:11:48.339Z,21.3
2022-08-26T03:14:36.976Z,17.6
2022-08-26T03:17:24.526Z,18.8
2022-08-26T03:20:15.467Z,16.9
2022-08-26T03:23:03.742Z,23.6
2022-08-26T03:25:52.282Z,18
2022-08-26T03:28:39.862Z,17.1
2022-08-26T03:33:24.655Z,22.3
2022-08-26T03:36:13.367Z,20
2022-08-26T03:39:02.483Z,22.9
2022-08-26T03:41:50.908Z,17.5
2022-08-26T03:44:42.079Z,17.2
2022-08-26T03:47:29.929Z,18.5
2022-08-26T03:50:22.597Z,20.3
2022-08-26T03:53:12.672Z,20.7
2022-08-26T03:56:01.207Z,18.9
2022-08-26T03:58:49.504Z,17.8
2022-08-26T04:01:39.073Z,16.5
2022-08-26T04:04:27.484Z,20.8
2022-08-26T04:07:15.040Z,17.8
2022-08-26T04:10:03.123Z,16.4
2022-08-26T04:12:52.824Z,19.1
2022-08-26T04:15:40.396Z,16.9
2022-08-26T04:18:32.661Z,17.2
2022-08-26T04:21:24.879Z,22.6
2022-08-26T04:24:14.134Z,16.9
2022-08-26T04:27:02.247Z,16.5
2022-08-26T04:29:53.562Z,18.9
2022-08-26T04:32:43.716Z,16.8
2022-08-26T04:35:31.452Z,17.6
2022-08-26T04:38:19.752Z,17.4
2022-08-26T04:41:15.311Z,18.8
2022-08-26T04:44:05.213Z,19.4
2022-08-26T04:46:52.940Z,16.9
2022-08-26T04:49:41.596Z,19.6
2022-08-26T04:52:29.166Z,18
2022-08-26T04:55:18.947Z,18.6
2022-08-26T04:58:07.514Z,19.7
2022-08-26T05:01:00.292Z,23.5
2022-08-26T05:03:49.641Z,17.6
2022-08-26T05:06:39.404Z,18.4
2022-08-26T05:09:27.320Z,17.7
2022-08-26T05:12:15.760Z,16.3
2022-08-26T05:15:05.272Z,19.1
2022-08-26T05:17:55.012Z,17.7
2022-08-26T05:20:43.903Z,17.2
2022-08-26T05:23:34.973Z,16.8
2022-08-26T05:26:23.366Z,17.4
2022-08-26T05:29:16.046Z,17.7
2022-08-26T05:32:04.445Z,19.3
2022-08-26T05:34:53.034Z,19.2
2022-08-26T05:37:42.002Z,16.9
2022-08-26T05:40:29.663Z,17.7
2022-08-26T05:43:20.975Z,18.2
2022-08-26T05:46:09.446Z,18.5
2022-08-26T05:48:57.280Z,17.2
2022-08-26T05:51:45.461Z,19.8
2022-08-26T05:54:33.067Z,17.1
2022-08-26T05:57:20.561Z,22.4
2022-08-26T06:00:10.877Z,18.4
2022-08-26T06:03:00.798Z,18.6
2022-08-26T06:05:49.270Z,17
2022-08-26T06:08:37.483Z,16.1
2022-08-26T06:11:26.998Z,17
2022-08-26T06:14:17.221Z,16.3
2022-08-26T06:17:06.357Z,18.6
2022-08-26T06:19:57.254Z,16.3
2022-08-26T06:22:45.194Z,14.5
2022-08-26T06:26:04.238Z,14.3
2022-08-26T06:28:52.678Z,15.3
2022-08-26T06:31:40.984Z,15.5
2022-08-26T06:34:29.825Z,13.7
2022-08-26T06:37:18.818Z,15.1
2022-08-26T06:40:08.623Z,16.5
2022-08-26T06:42:56.989Z,14.5
2022-08-26T06:45:45.438Z,16
2022-08-26T06:48:35.655Z,14.9
2022-08-26T06:51:24.390Z,18.9
2022-08-26T06:54:15.258Z,14
2022-08-26T06:57:02.986Z,15.3
2022-08-26T06:59:51.629Z,13.9
2022-08-26T07:02:39.511Z,13.2
2022-08-26T07:05:27.673Z,14
2022-08-26T07:08:15.656Z,12.2
2022-08-26T07:11:04.956Z,11.9
2022-08-26T07:13:54.226Z,18.6
2022-08-26T07:16:43.646Z,14
2022-08-26T07:19:32.086Z,13.4
2022-08-26T07:22:21.259Z,11
2022-08-26T07:25:08.878Z,12.4
2022-08-26T07:27:56.865Z,13.8
2022-08-26T07:30:44.621Z,11.2
2022-08-26T07:33:32.190Z,15.7
2022-08-26T07:36:20.721Z,13.2
2022-08-26T07:39:09.157Z,12.1
2022-08-26T07:41:57.562Z,13.2
2022-08-26T07:44:46.483Z,11.2
2022-08-26T07:47:35.127Z,11
2022-08-26T07:50:48.770Z,13.3
2022-08-26T07:53:38.510Z,14.9
2022-08-26T07:56:26.126Z,10.2
2022-08-26T07:59:15.153Z,11.5
2022-08-26T08:02:04.314Z,16.5
2022-08-26T08:04:52.100Z,10.8
2022-08-26T08:07:44.812Z,13.6
2022-08-26T08:10:33.558Z,10.4
2022-08-26T08:13:23.906Z,11.3
2022-08-26T08:16:17.070Z,13.7
2022-08-26T08:19:04.630Z,12.6
2022-08-26T08:21:52.604Z,10.4
2022-08-26T08:24:40.195Z,13.5
2022-08-26T08:27:27.931Z,10.2
2022-08-26T08:30:20.828Z,11.4
2022-08-26T08:33:10.776Z,9.9
2022-08-26T08:35:58.434Z,9.7
2022-08-26T08:38:46.574Z,11.2
2022-08-26T08:41:35.155Z,9.4
2022-08-26T08:44:34.525Z,16.6
2022-08-26T08:47:26.978Z,12.4
2022-08-26T08:50:20.130Z,9.9
2022-08-26T08:53:13.750Z,11.5
2022-08-26T08:56:07.354Z,10.5
2022-08-26T08:59:08.238Z,8.6
2022-08-26T09:02:02.958Z,9.9
2022-08-26T09:04:59.668Z,13
2022-08-26T09:07:55.022Z,12.7
2022-08-26T09:10:47.275Z,9.2
2022-08-26T09:13:40.710Z,10.4
2022-08-26T09:16:33.817Z,12.9
2022-08-26T09:19:36.372Z,17.8
2022-08-26T09:22:28.062Z,9.3
2022-08-26T09:25:18.687Z,11.1
2022-08-26T09:28:06.451Z,10.2
2022-08-26T09:31:01.628Z,8.5
2022-08-26T09:33:58.756Z,10.5
2022-08-26T09:36:57.312Z,12.4
2022-08-26T09:39:45.388Z,8.7
2022-08-26T09:42:32.989Z,9.2
2022-08-26T09:45:21.532Z,9.6
2022-08-26T09:48:13.955Z,8.2
2022-08-26T09:51:16.986Z,11.1
2022-08-26T09:54:15.991Z,9.5
2022-08-26T09:57:11.671Z,7.3
2022-08-26T10:00:05.634Z,12.3
2022-08-26T10:03:10.730Z,11.4
2022-08-26T10:06:11.098Z,8.3
2022-08-26T10:09:09.864Z,10.3
2022-08-26T10:12:03.366Z,8.3
2022-08-26T10:14:56.781Z,8.8
2022-08-26T10:17:53.015Z,9.9
2022-08-26T10:20:50.119Z,9.8
2022-08-26T10:23:43.581Z,10.2
2022-08-26T10:26:36.995Z,9.3
2022-08-26T10:29:31.205Z,9.3
2022-08-26T10:32:25.309Z,11.1
2022-08-26T10:35:20.056Z,8.1
2022-08-26T10:38:11.742Z,9.1
2022-08-26T10:41:03.943Z,9.1
2022-08-26T10:44:02.360Z,8.5
2022-08-26T10:46:55.688Z,9.6
2022-08-26T10:49:51.183Z,9.6
2022-08-26T10:52:40.982Z,12.2
2022-08-26T10:55:42.949Z,10.3
2022-08-26T10:58:41.543Z,6.9
2022-08-26T11:01:41.235Z,9
2022-08-26T11:04:37.272Z,8.8
2022-08-26T11:07:31.784Z,8.6
2022-08-26T11:10:24.351Z,8.9
2022-08-26T11:13:41.684Z,11.2
2022-08-26T11:16:48.790Z,8
2022-08-26T11:19:59.575Z,8.5
2022-08-26T11:22:50.486Z,11.7
2022-08-26T11:25:39.844Z,12.8
2022-08-26T11:28:59.388Z,6.6
2022-08-26T11:31:54.560Z,8.4
2022-08-26T11:34:42.762Z,10.7
2022-08-26T11:37:49.222Z,7.9
2022-08-26T11:40:42.009Z,14.4
2022-08-26T11:43:30.471Z,11.3
2022-08-26T11:46:18.893Z,7.5
2022-08-26T11:49:10.703Z,11
2022-08-26T11:51:59.515Z,15.2
2022-08-26T11:55:06.839Z,8.2
2022-08-26T11:57:59.484Z,7.8
2022-08-26T12:00:51.080Z,6.9
2022-08-26T12:03:43.384Z,12
2022-08-26T12:06:36.378Z,11.6
2022-08-26T12:09:34.256Z,10.4
2022-08-26T12:12:36.175Z,10.7
2022-08-26T12:15:24.858Z,9.4
2022-08-26T12:18:14.306Z,10.7
2022-08-26T12:21:04.937Z,8.7
2022-08-26T12:23:58.849Z,8.3
2022-08-26T12:26:48.702Z,7
2022-08-26T12:29:49.081Z,6.8
2022-08-26T12:32:57.297Z,7.7
2022-08-26T12:35:56.380Z,8.3
2022-08-26T12:38:46.650Z,11
2022-08-26T12:41:34.580Z,7.8
2022-08-26T12:44:32.891Z,7.4
2022-08-26T12:47:33.880Z,9.8
2022-08-26T12:50:31.759Z,8.8
2022-08-26T12:53:22.492Z,10.5
2022-08-26T12:56:13.137Z,10.2
2022-08-26T12:59:13.479Z,7.5
2022-08-26T13:02:09.969Z,11
2022-08-26T13:05:20.239Z,6.9
2022-08-26T13:08:10.302Z,12.6
2022-08-26T13:11:02.015Z,9.3
2022-08-26T13:13:55.909Z,8.7
2022-08-26T13:16:46.242Z,11.5
2022-08-26T13:19:34.075Z,9.9
2022-08-26T13:22:21.656Z,7.8
2022-08-26T13:25:10.299Z,7.8
2022-08-26T13:27:57.943Z,8.7
2022-08-26T13:30:45.698Z,13.3
2022-08-26T13:33:34.407Z,9.4
2022-08-26T13:36:22.914Z,8.2
2022-08-26T13:39:10.535Z,10.2
2022-08-26T13:41:58.852Z,11.3
2022-08-26T13:44:46.537Z,10.8
2022-08-26T13:47:36.396Z,12.4
2022-08-26T13:50:24.020Z,10.4
2022-08-26T13:53:11.731Z,10.4
2022-08-26T13:55:59.939Z,7.7
2022-08-26T13:58:49.559Z,9.6
2022-08-26T14:01:38.168Z,9.4
2022-08-26T14:04:27.472Z,8.7
2022-08-26T14:07:15.314Z,10.7
2022-08-26T14:10:03.303Z,9.4
2022-08-26T14:12:52.602Z,11.2
2022-08-26T14:15:41.247Z,7.5
2022-08-26T14:18:29.262Z,9.2
2022-08-26T14:21:19.540Z,7.6
2022-08-26T14:24:08.502Z,10
2022-08-26T14:26:56.159Z,9
2022-08-26T14:29:44.158Z,7.9
2022-08-26T14:32:31.859Z,7.6
2022-08-26T14:35:20.629Z,7.1
2022-08-26T14:38:11.044Z,11.2
2022-08-26T14:40:59.187Z,9.1
2022-08-26T14:43:48.515Z,9.5
2022-08-26T14:46:42.593Z,10.2
2022-08-26T14:49:32.350Z,12.8
2022-08-26T14:52:20.451Z,10.6
2022-08-26T14:55:08.210Z,7.3
2022-08-26T14:57:55.883Z,8.6
2022-08-26T15:00:44.027Z,8.9
2022-08-26T15:03:31.899Z,8.3
2022-08-26T15:06:19.546Z,8.9
2022-08-26T15:09:08.358Z,9.8
2022-08-26T15:11:56.667Z,10.5
2022-08-26T15:14:44.271Z,9.6
2022-08-26T15:17:31.974Z,8.7
2022-08-26T15:20:20.444Z,9.5
2022-08-26T15:23:08.753Z,9.4
2022-08-26T15:25:56.767Z,11.8
2022-08-26T15:28:44.759Z,9.2
2022-08-26T15:31:32.504Z,8.1
2022-08-26T15:34:21.090Z,10.7
2022-08-26T15:37:09.408Z,13.3
2022-08-26T15:39:57.354Z,9.7
2022-08-26T15:42:45.011Z,10.5
2022-08-26T15:45:42.131Z,8.8
2022-08-26T15:48:29.695Z,7
2022-08-26T15:51:17.527Z,10
2022-08-26T15:54:07.498Z,10.8
2022-08-26T15:56:58.810Z,5.7
2022-08-26T15:59:48.350Z,10.2
2022-08-26T16:02:36.476Z,10.5
2022-08-26T16:05:24.134Z,10
2022-08-26T16:08:11.849Z,9.7
2022-08-26T16:11:03.450Z,13
2022-08-26T16:13:51.700Z,11.5
2022-08-26T16:16:40.018Z,10
2022-08-26T16:19:28.253Z,8.2
2022-08-26T16:22:16.009Z,10.9
2022-08-26T16:25:03.708Z,6.4
2022-08-26T16:27:52.160Z,9.6
2022-08-26T16:30:40.459Z,9.7
2022-08-26T16:33:29.828Z,11
2022-08-26T16:36:17.764Z,10.2
2022-08-26T16:39:05.255Z,11.1
2022-08-26T16:41:54.059Z,11
2022-08-26T16:44:41.742Z,9.8
2022-08-26T16:47:29.799Z,7.9
2022-08-26T16:50:18.487Z,10.4
2022-08-26T16:55:56.856Z,11.5
2022-08-26T16:58:44.520Z,10.8
2022-08-26T17:01:33.060Z,14
2022-08-26T17:04:21.533Z,18.9
2022-08-26T17:07:09.610Z,10.6
2022-08-26T17:09:57.524Z,10.3
2022-08-26T17:12:45.182Z,10.4
2022-08-26T17:15:33.735Z,12.1
2022-08-26T17:18:21.348Z,9
2022-08-26T17:21:12.592Z,7.4
2022-08-26T17:24:00.370Z,11.5
2022-08-26T17:26:53.465Z,7.9
2022-08-26T17:29:43.120Z,7.3
2022-08-26T17:32:30.521Z,6.4
2022-08-26T17:35:18.345Z,8.7
2022-08-26T17:38:06.601Z,11.1
2022-08-26T17:40:54.262Z,9.2
2022-08-26T17:43:43.185Z,7.5
2022-08-26T17:46:33.130Z,6
2022-08-26T17:49:21.834Z,9.6
2022-08-26T17:52:11.573Z,11.2
2022-08-26T17:54:59.389Z,9.6
2022-08-26T17:57:53.626Z,8
2022-08-26T18:00:41.972Z,14.3
2022-08-26T18:03:31.068Z,13.7
2022-08-26T18:06:20.154Z,10.2
2022-08-26T18:09:08.679Z,13.1
2022-08-26T18:11:56.934Z,11.9
2022-08-26T18:14:45.146Z,10.3
2022-08-26T18:17:32.743Z,9.6
2022-08-26T18:20:20.902Z,7.8
2022-08-26T18:23:09.024Z,8.1
2022-08-26T18:25:57.307Z,17.4
2022-08-26T18:28:44.967Z,9.7
2022-08-26T18:31:32.738Z,9.5
2022-08-26T18:34:20.516Z,10.1
2022-08-26T18:39:57.105Z,14.7
2022-08-26T18:42:45.250Z,10.1
2022-08-26T18:45:37.315Z,7.8
2022-08-26T18:48:25.642Z,11.7
2022-08-26T18:51:13.720Z,8.2
2022-08-26T18:54:03.015Z,11.1
2022-08-26T18:56:52.062Z,10.2
2022-08-26T18:59:39.687Z,9.4
2022-08-26T19:02:27.676Z,15.2
2022-08-26T19:05:18.963Z,9.7
2022-08-26T19:08:06.733Z,9.1
2022-08-26T19:10:55.019Z,7.8
2022-08-26T19:13:45.339Z,10.9
2022-08-26T19:16:33.060Z,11
2022-08-26T19:19:22.049Z,12.7
2022-08-26T19:22:09.799Z,10.9
2022-08-26T19:24:57.499Z,11.6
2022-08-26T19:27:45.459Z,8.4
2022-08-26T19:30:33.156Z,10.2
2022-08-26T19:33:23.758Z,10.9
2022-08-26T19:36:14.781Z,9.8
2022-08-26T19:39:07.783Z,13.8
2022-08-26T19:41:55.752Z,6.8
2022-08-26T19:44:43.987Z,9.9
2022-08-26T19:48:03.580Z,11.1
2022-08-26T19:50:51.487Z,12.3
2022-08-26T19:53:39.223Z,10.9
2022-08-26T19:56:30.163Z,9.5
2022-08-26T19:59:19.579Z,10.7
2022-08-26T20:02:10.569Z,12.9
2022-08-26T20:04:59.509Z,10.6
2022-08-26T20:07:48.081Z,13.9
2022-08-26T20:10:36.997Z,14.6
2022-08-26T20:13:24.771Z,11.4
2022-08-26T20:16:13.026Z,12.6
2022-08-26T20:19:01.900Z,11.8
2022-08-26T20:22:21.602Z,11.6
2022-08-26T20:25:10.170Z,12.4
2022-08-26T20:27:57.831Z,11
2022-08-26T20:30:46.668Z,14.3
2022-08-26T20:33:44.358Z,11
2022-08-26T20:36:35.266Z,10.6
2022-08-26T20:39:25.351Z,11.8
2022-08-26T20:42:20.035Z,10.4
2022-08-26T20:45:08.611Z,9.6
2022-08-26T20:47:57.091Z,10.2
2022-08-26T20:50:45.105Z,11.9
2022-08-26T20:53:32.792Z,13.5
2022-08-26T20:56:20.828Z,10
2022-08-26T20:59:09.418Z,13.6
2022-08-26T21:01:57.222Z,13.5
2022-08-26T21:04:45.266Z,9
2022-08-26T21:07:32.936Z,13.2
2022-08-26T21:10:20.756Z,12.1
2022-08-26T21:13:11.049Z,11.3
2022-08-26T21:15:59.081Z,12.5
2022-08-26T21:18:47.094Z,17.7
2022-08-26T21:21:34.813Z,13.9
2022-08-26T21:24:23.456Z,7.4
2022-08-26T21:27:11.249Z,11
2022-08-26T21:29:59.205Z,13.1
2022-08-26T21:32:47.579Z,13.2
2022-08-26T21:35:35.371Z,12
2022-08-26T21:38:23.068Z,10.4
2022-08-26T21:41:11.127Z,12.9
2022-08-26T21:44:03.968Z,10.5
2022-08-26T21:46:51.771Z,15.5
2022-08-26T21:49:40.465Z,13
2022-08-26T21:52:28.857Z,8.2
2022-08-26T21:55:16.583Z,15.2
2022-08-26T21:58:04.536Z,15.2
2022-08-26T22:00:52.169Z,10.4
2022-08-26T22:03:47.560Z,8.2
2022-08-26T22:06:37.305Z,10.7
2022-08-26T22:09:28.539Z,9.9
2022-08-26T22:12:17.191Z,11.7
2022-08-26T22:15:05.023Z,8.1
2022-08-26T22:17:54.317Z,11.5
2022-08-26T22:20:41.974Z,10.6
2022-08-26T22:23:30.417Z,8.8
2022-08-26T22:26:20.569Z,9.4
2022-08-26T22:29:17.330Z,11.9
2022-08-26T22:32:05.526Z,8.5
2022-08-26T22:34:53.327Z,11.8
2022-08-26T22:37:40.976Z,8.6
2022-08-26T22:40:29.228Z,11.4
2022-08-26T22:43:17.013Z,14.9
2022-08-26T22:46:05.114Z,14.9
2022-08-26T22:48:54.247Z,12
2022-08-26T22:51:41.954Z,10.3
2022-08-26T22:54:30.685Z,10.1
2022-08-26T22:57:18.418Z,11.6
2022-08-26T23:00:06.600Z,12.8
2022-08-26T23:02:57.508Z,11.9
2022-08-26T23:05:45.520Z,12.3
2022-08-26T23:08:34.597Z,10.2
2022-08-26T23:11:22.876Z,14
2022-08-26T23:14:10.552Z,10
2022-08-26T23:16:58.809Z,13.3
2022-08-26T23:19:46.954Z,13.9
2022-08-26T23:22:34.737Z,11.2
2022-08-26T23:25:23.025Z,13
2022-08-26T23:28:14.601Z,13.3
2022-08-26T23:31:02.554Z,12.1
2022-08-26T23:33:50.885Z,14.8
2022-08-26T23:37:10.568Z,10.3
2022-08-26T23:39:58.908Z,12.8
2022-08-26T23:42:49.904Z,9.9
2022-08-26T23:45:38.145Z,15.3
2022-08-26T23:48:25.832Z,10
2022-08-26T23:51:14.756Z,15.7
2022-08-26T23:54:34.444Z,14.7
2022-08-26T23:57:22.199Z,14.3
